createdAt,value
2023-01-09T00:02:10.584Z,99471.80
2023-01-09T00:04:56.647Z,99463.77
2023-01-09T00:07:33.485Z,99464.89
2023-01-09T00:10:08.258Z,99471.52
2023-01-09T00:12:45.738Z,99467.48
2023-01-09T00:15:22.884Z,99465.78
2023-01-09T00:18:06.498Z,99461.94
2023-01-09T00:20:43.096Z,99466.23
2023-01-09T00:23:17.384Z,99465.48
2023-01-09T00:26:09.294Z,99472.09
2023-01-09T00:29:03.757Z,99476.07
2023-01-09T00:31:40.357Z,99482.98
2023-01-09T00:34:25.815Z,99487.77
2023-01-09T00:37:20.408Z,99486.00
2023-01-09T00:39:57.211Z,99476.19
2023-01-09T00:42:40.728Z,99473.48
2023-01-09T00:45:28.895Z,99470.76
2023-01-09T00:48:27.455Z,99462.61
2023-01-09T00:51:02.514Z,99475.00
2023-01-09T00:53:49.417Z,99484.42
2023-01-09T00:56:38.569Z,99478.42
2023-01-09T00:59:26.294Z,99467.88
2023-01-09T01:02:04.249Z,99460.07
2023-01-09T01:04:55.789Z,99446.73
2023-01-09T01:07:49.856Z,99436.75
2023-01-09T01:10:44.010Z,99434.15
2023-01-09T01:13:38.656Z,99437.92
2023-01-09T01:16:32.772Z,99420.68
2023-01-09T01:19:17.169Z,99411.36
2023-01-09T01:21:54.472Z,99414.18
2023-01-09T01:24:28.804Z,99416.21
2023-01-09T01:27:12.949Z,99419.02
2023-01-09T01:29:46.643Z,99417.83
2023-01-09T01:32:20.879Z,99413.02
2023-01-09T01:34:57.405Z,99407.76
2023-01-09T01:37:44.042Z,99404.70
2023-01-09T01:40:38.657Z,99401.91
2023-01-09T01:43:50.599Z,99402.51
2023-01-09T01:46:27.990Z,99399.70
2023-01-09T01:49:23.497Z,99403.27
2023-01-09T01:52:07.810Z,99401.70
2023-01-09T01:54:41.622Z,99405.98
2023-01-09T01:57:27.192Z,99406.24
2023-01-09T02:00:03.850Z,99406.20
2023-01-09T02:02:38.062Z,99414.52
2023-01-09T02:05:33.108Z,99419.20
2023-01-09T02:08:17.778Z,99417.83
2023-01-09T02:10:55.439Z,99416.39
2023-01-09T02:13:33.734Z,99415.38
2023-01-09T02:16:43.484Z,99412.83
2023-01-09T02:19:58.315Z,99411.27
2023-01-09T02:23:05.315Z,99406.96
2023-01-09T02:26:05.595Z,99400.30
2023-01-09T02:29:28.913Z,99395.39
2023-01-09T02:32:07.331Z,99396.94
2023-01-09T02:35:15.855Z,99394.21
2023-01-09T02:38:19.147Z,99390.40
2023-01-09T02:41:20.220Z,99384.69
2023-01-09T02:44:24.991Z,99381.72
2023-01-09T02:47:39.668Z,99380.22
2023-01-09T02:50:38.619Z,99385.23
2023-01-09T02:54:03.837Z,99389.70
2023-01-09T02:57:09.802Z,99393.54
2023-01-09T03:00:02.389Z,99386.95
2023-01-09T03:02:49.732Z,99379.00
2023-01-09T03:05:32.822Z,99369.48
2023-01-09T03:08:32.018Z,99370.84
2023-01-09T03:11:16.200Z,99368.95
2023-01-09T03:14:11.715Z,99361.64
2023-01-09T03:17:03.733Z,99360.73
2023-01-09T03:19:59.128Z,99360.17
2023-01-09T03:22:50.368Z,99359.20
2023-01-09T03:25:43.254Z,99351.85
2023-01-09T03:28:32.749Z,99351.58
2023-01-09T03:31:18.503Z,99346.31
2023-01-09T03:34:12.217Z,99338.14
2023-01-09T03:37:06.155Z,99333.90
2023-01-09T03:39:43.843Z,99325.02
2023-01-09T03:42:20.668Z,99325.72
2023-01-09T03:44:54.588Z,99319.95
2023-01-09T03:47:38.125Z,99308.48
2023-01-09T03:50:24.777Z,99297.97
2023-01-09T03:53:20.423Z,99304.61
2023-01-09T03:56:05.816Z,99295.63
2023-01-09T03:59:00.139Z,99292.70
2023-01-09T04:01:36.468Z,99291.70
2023-01-09T04:04:21.849Z,99285.81
2023-01-09T04:07:14.786Z,99294.98
2023-01-09T04:09:59.221Z,99289.30
2023-01-09T04:12:44.314Z,99291.30
2023-01-09T04:15:18.845Z,99287.55
2023-01-09T04:17:52.705Z,99289.91
2023-01-09T04:20:50.314Z,99292.47
2023-01-09T04:23:33.988Z,99290.03
2023-01-09T04:26:18.340Z,99290.69
2023-01-09T04:29:09.066Z,99292.85
2023-01-09T04:31:42.824Z,99291.91
2023-01-09T04:34:27.935Z,99291.33
2023-01-09T04:37:01.925Z,99287.95
2023-01-09T04:39:46.318Z,99292.39
2023-01-09T04:42:40.691Z,99293.61
2023-01-09T04:45:34.770Z,99290.96
2023-01-09T04:48:29.260Z,99287.97
2023-01-09T04:51:23.250Z,99290.49
2023-01-09T04:54:17.117Z,99288.42
2023-01-09T04:57:11.629Z,99283.00
2023-01-09T04:59:45.517Z,99277.38
2023-01-09T05:02:29.531Z,99275.03
2023-01-09T05:05:24.565Z,99270.02
2023-01-09T05:08:09.159Z,99266.77
2023-01-09T05:10:53.097Z,99259.89
2023-01-09T05:13:47.391Z,99262.36
2023-01-09T05:16:21.442Z,99266.36
2023-01-09T05:19:15.551Z,99265.16
2023-01-09T05:21:59.508Z,99261.46
2023-01-09T05:24:44.744Z,99260.27
2023-01-09T05:27:38.811Z,99253.66
2023-01-09T05:30:32.956Z,99250.28
2023-01-09T05:33:27.116Z,99247.45
2023-01-09T05:36:01.244Z,99238.29
2023-01-09T05:38:55.438Z,99237.31
2023-01-09T05:41:49.526Z,99235.58
2023-01-09T05:44:23.729Z,99242.08
2023-01-09T05:47:08.925Z,99237.66
2023-01-09T05:49:43.067Z,99230.88
2023-01-09T05:52:26.796Z,99228.79
2023-01-09T05:55:21.143Z,99229.40
2023-01-09T05:58:06.440Z,99224.41
2023-01-09T06:00:44.192Z,99231.13
2023-01-09T06:03:18.266Z,99231.95
2023-01-09T06:06:12.488Z,99227.60
2023-01-09T06:08:52.403Z,99227.59
2023-01-09T06:11:38.767Z,99219.48
2023-01-09T06:14:15.240Z,99218.61
2023-01-09T06:16:52.638Z,99214.49
2023-01-09T06:19:46.802Z,99216.36
2023-01-09T06:22:41.206Z,99216.45
2023-01-09T06:25:35.306Z,99217.31
2023-01-09T06:28:12.570Z,99222.46
2023-01-09T06:30:56.931Z,99224.17
2023-01-09T06:33:33.658Z,99224.09
2023-01-09T06:36:27.923Z,99228.56
2023-01-09T06:39:14.360Z,99229.06
2023-01-09T06:41:48.870Z,99224.06
2023-01-09T06:44:36.847Z,99217.02
2023-01-09T06:47:31.374Z,99214.62
2023-01-09T06:50:06.013Z,99213.60
2023-01-09T06:52:50.340Z,99211.95
2023-01-09T06:55:34.737Z,99210.91
2023-01-09T06:58:28.679Z,99207.94
2023-01-09T07:01:23.380Z,99201.56
2023-01-09T07:04:05.943Z,99198.21
2023-01-09T07:07:00.320Z,99196.98
2023-01-09T07:09:38.178Z,99195.00
2023-01-09T07:12:13.230Z,99188.92
2023-01-09T07:14:53.043Z,99189.52
2023-01-09T07:17:30.577Z,99191.75
2023-01-09T07:20:16.714Z,99196.49
2023-01-09T07:23:12.827Z,99202.29
2023-01-09T07:26:07.085Z,99198.17
2023-01-09T07:28:54.911Z,99200.67
2023-01-09T07:31:28.813Z,99196.40
2023-01-09T07:34:02.573Z,99197.48
2023-01-09T07:36:56.979Z,99199.30
2023-01-09T07:39:40.006Z,99199.20
2023-01-09T07:42:17.419Z,99199.82
2023-01-09T07:44:54.688Z,99196.48
2023-01-09T07:47:28.714Z,99184.98
2023-01-09T07:50:02.634Z,99187.10
2023-01-09T07:52:36.355Z,99181.81
2023-01-09T07:55:15.528Z,99181.80
2023-01-09T07:57:53.591Z,99176.73
2023-01-09T08:00:32.433Z,99177.35
2023-01-09T08:03:07.332Z,99173.48
2023-01-09T08:05:52.889Z,99173.47
2023-01-09T08:08:37.388Z,99171.26
2023-01-09T08:11:11.185Z,99172.60
2023-01-09T08:13:44.933Z,99165.94
2023-01-09T08:16:39.269Z,99164.66
2023-01-09T08:19:33.480Z,99167.17
2023-01-09T08:22:07.705Z,99169.59
2023-01-09T08:24:45.174Z,99173.36
2023-01-09T08:27:19.032Z,99175.40
2023-01-09T08:29:55.201Z,99168.20
2023-01-09T08:32:52.527Z,99158.70
2023-01-09T08:35:39.695Z,99159.76
2023-01-09T08:38:33.782Z,99162.41
2023-01-09T08:41:45.207Z,99159.54
2023-01-09T08:44:47.883Z,99156.81
2023-01-09T08:47:42.104Z,99147.54
2023-01-09T08:50:20.489Z,99138.88
2023-01-09T08:53:15.773Z,99144.52
2023-01-09T08:56:10.619Z,99159.04
2023-01-09T08:59:04.625Z,99167.90
2023-01-09T09:01:41.861Z,99170.21
2023-01-09T09:04:26.988Z,99164.27
2023-01-09T09:07:01.211Z,99158.76
2023-01-09T09:09:55.663Z,99150.52
2023-01-09T09:12:51.655Z,99143.71
2023-01-09T09:15:28.765Z,99137.77
2023-01-09T09:18:23.400Z,99136.62
2023-01-09T09:21:10.079Z,99127.94
2023-01-09T09:24:05.504Z,99120.60
2023-01-09T09:26:59.569Z,99115.79
2023-01-09T09:29:53.579Z,99109.70
2023-01-09T09:32:48.110Z,99118.49
2023-01-09T09:35:23.016Z,99124.57
2023-01-09T09:38:08.623Z,99126.50
2023-01-09T09:41:33.037Z,99126.77
2023-01-09T09:44:53.311Z,99123.73
2023-01-09T09:47:46.289Z,99116.17
2023-01-09T09:51:00.716Z,99115.09
2023-01-09T09:54:01.222Z,99112.50
2023-01-09T09:56:50.053Z,99103.41
2023-01-09T09:59:38.488Z,99096.82
2023-01-09T10:02:27.059Z,99096.34
2023-01-09T10:05:20.863Z,99095.85
2023-01-09T10:08:27.426Z,99092.97
2023-01-09T10:11:27.323Z,99091.83
2023-01-09T10:14:22.836Z,99097.66
2023-01-09T10:17:09.505Z,99095.55
2023-01-09T10:20:26.429Z,99094.98
2023-01-09T10:23:11.707Z,99099.65
2023-01-09T10:26:03.922Z,99094.58
2023-01-09T10:29:07.600Z,99097.90
2023-01-09T10:31:55.038Z,99095.70
2023-01-09T10:34:58.974Z,99094.22
2023-01-09T10:37:40.438Z,99092.73
2023-01-09T10:40:32.099Z,99085.63
2023-01-09T10:43:29.282Z,99078.34
2023-01-09T10:46:27.654Z,99066.86
2023-01-09T10:49:14.441Z,99066.89
2023-01-09T10:52:20.968Z,99065.27
2023-01-09T10:54:57.690Z,99060.52
2023-01-09T10:57:56.326Z,99058.70
2023-01-09T11:00:40.408Z,99057.28
2023-01-09T11:03:34.965Z,99055.83
2023-01-09T11:06:22.818Z,99046.92
2023-01-09T11:09:03.659Z,99042.59
2023-01-09T11:11:52.735Z,99037.20
2023-01-09T11:14:31.754Z,99033.30
2023-01-09T11:17:28.291Z,99028.36
2023-01-09T11:20:26.451Z,99031.01
2023-01-09T11:23:03.763Z,99028.42
2023-01-09T11:25:56.752Z,99019.14
2023-01-09T11:29:09.359Z,99019.59
2023-01-09T11:31:56.291Z,99016.23
2023-01-09T11:34:40.765Z,99008.48
2023-01-09T11:37:26.391Z,99003.73
2023-01-09T11:40:02.008Z,99004.48
2023-01-09T11:42:55.164Z,99000.01
2023-01-09T11:45:34.122Z,98995.61
2023-01-09T11:48:20.493Z,98992.71
2023-01-09T11:51:25.605Z,98996.51
2023-01-09T11:54:26.964Z,98992.02
2023-01-09T11:57:03.536Z,98989.39
2023-01-09T11:59:39.845Z,98988.02
2023-01-09T12:02:47.508Z,98981.73
2023-01-09T12:05:43.443Z,98977.98
2023-01-09T12:08:28.993Z,98973.98
2023-01-09T12:11:24.436Z,98968.77
2023-01-09T12:14:19.578Z,98968.70
2023-01-09T12:17:17.082Z,98966.53
2023-01-09T12:20:27.683Z,98961.34
2023-01-09T12:23:23.096Z,98962.09
2023-01-09T12:26:23.204Z,98962.50
2023-01-09T12:29:32.098Z,98961.52
2023-01-09T12:32:23.664Z,98953.84
2023-01-09T12:35:09.583Z,98950.09
2023-01-09T12:38:08.451Z,98950.95
2023-01-09T12:41:12.097Z,98959.80
2023-01-09T12:43:58.038Z,98962.70
2023-01-09T12:46:45.461Z,98963.69
2023-01-09T12:49:32.467Z,98962.88
2023-01-09T12:52:12.855Z,98961.07
2023-01-09T12:54:53.611Z,98966.85
2023-01-09T12:57:36.267Z,98965.22
2023-01-09T13:00:23.938Z,98963.33
2023-01-09T13:03:17.852Z,98957.35
2023-01-09T13:05:54.087Z,98950.81
2023-01-09T13:08:32.200Z,98935.09
2023-01-09T13:11:19.863Z,98931.59
2023-01-09T13:14:08.141Z,98934.96
2023-01-09T13:16:46.495Z,98935.08
2023-01-09T13:19:20.076Z,98934.29
2023-01-09T13:22:08.081Z,98932.59
2023-01-09T13:25:16.722Z,98931.13
2023-01-09T13:28:09.466Z,98927.58
2023-01-09T13:31:04.074Z,98924.77
2023-01-09T13:33:40.367Z,98920.51
2023-01-09T13:36:25.962Z,98916.85
2023-01-09T13:39:27.196Z,98909.63
2023-01-09T13:42:47.016Z,98910.20
2023-01-09T13:45:34.311Z,98909.42
2023-01-09T13:48:42.439Z,98906.80
2023-01-09T13:52:00.921Z,98901.30
2023-01-09T13:55:17.989Z,98905.45
2023-01-09T13:58:29.154Z,98909.43
2023-01-09T14:01:44.637Z,98911.30
2023-01-09T14:04:47.676Z,98908.98
2023-01-09T14:07:25.225Z,98916.06
2023-01-09T14:10:29.249Z,98912.66
2023-01-09T14:13:08.528Z,98906.52
2023-01-09T14:16:09.452Z,98901.55
2023-01-09T14:18:51.597Z,98901.70
2023-01-09T14:21:51.649Z,98898.64
2023-01-09T14:24:32.755Z,98900.94
2023-01-09T14:27:47.641Z,98904.90
2023-01-09T14:30:32.563Z,98905.26
2023-01-09T14:33:26.506Z,98900.36
2023-01-09T14:36:22.199Z,98905.56
2023-01-09T14:39:17.992Z,98905.45
2023-01-09T14:42:09.431Z,98909.19
2023-01-09T14:44:53.995Z,98916.81
2023-01-09T14:47:42.336Z,98919.55
2023-01-09T14:50:19.182Z,98920.44
2023-01-09T14:52:58.610Z,98928.59
2023-01-09T14:55:42.152Z,98935.36
2023-01-09T14:58:22.495Z,98932.89
2023-01-09T15:01:02.563Z,98929.48
2023-01-09T15:03:40.225Z,98927.61
2023-01-09T15:06:21.284Z,98927.20
2023-01-09T15:09:02.929Z,98928.58
2023-01-09T15:11:42.649Z,98929.36
2023-01-09T15:14:27.795Z,98930.66
2023-01-09T15:17:03.404Z,98932.98
2023-01-09T15:19:38.191Z,98935.42
2023-01-09T15:22:29.320Z,98936.98
2023-01-09T15:25:19.320Z,98938.88
2023-01-09T15:27:59.431Z,98943.05
2023-01-09T15:30:37.674Z,98945.09
2023-01-09T15:33:17.228Z,98946.14
2023-01-09T15:35:58.839Z,98945.25
2023-01-09T15:38:54.315Z,98948.30
2023-01-09T15:41:48.373Z,98953.20
2023-01-09T15:44:36.783Z,98957.20
2023-01-09T15:47:18.901Z,98958.73
2023-01-09T15:50:17.654Z,98958.79
2023-01-09T15:53:01.976Z,98960.62
2023-01-09T15:55:49.134Z,98959.00
2023-01-09T15:58:37.510Z,98959.84
2023-01-09T16:01:30.254Z,98955.37
2023-01-09T16:04:09.971Z,98954.98
2023-01-09T16:07:04.229Z,98953.87
2023-01-09T16:09:57.029Z,98952.48
2023-01-09T16:12:34.939Z,98952.08
2023-01-09T16:15:22.058Z,98955.27
2023-01-09T16:18:24.155Z,98956.85
2023-01-09T16:21:22.537Z,98958.98
2023-01-09T16:24:26.918Z,98962.73
2023-01-09T16:27:31.036Z,98963.65
2023-01-09T16:30:06.820Z,98961.82
2023-01-09T16:32:53.012Z,98969.48
2023-01-09T16:35:28.766Z,98966.35
2023-01-09T16:38:04.852Z,98969.02
2023-01-09T16:41:23.772Z,98970.86
2023-01-09T16:43:57.757Z,98975.26
2023-01-09T16:46:31.713Z,98976.02
2023-01-09T16:49:15.850Z,98977.88
2023-01-09T16:52:19.198Z,98980.05
2023-01-09T16:54:56.538Z,98984.98
2023-01-09T16:57:35.566Z,98984.46
2023-01-09T17:00:30.327Z,98986.15
2023-01-09T17:03:04.472Z,98989.93
2023-01-09T17:05:38.525Z,98988.89
2023-01-09T17:08:25.165Z,98992.35
2023-01-09T17:11:20.686Z,98997.60
2023-01-09T17:14:15.879Z,99002.55
2023-01-09T17:17:02.812Z,99006.37
2023-01-09T17:19:57.000Z,99006.88
2023-01-09T17:22:51.391Z,99004.40
2023-01-09T17:25:43.263Z,99005.31
2023-01-09T17:28:36.369Z,99004.24
2023-01-09T17:31:31.682Z,99009.34
2023-01-09T17:34:17.454Z,99016.99
2023-01-09T17:36:56.012Z,99018.39
2023-01-09T17:39:38.038Z,99023.06
2023-01-09T17:42:23.584Z,99022.63
2023-01-09T17:45:18.786Z,99017.66
2023-01-09T17:48:18.179Z,99010.73
2023-01-09T17:50:52.754Z,99016.33
2023-01-09T17:53:47.163Z,99018.95
2023-01-09T17:56:45.049Z,99015.55
2023-01-09T17:59:31.289Z,99022.11
2023-01-09T18:02:21.472Z,99028.52
2023-01-09T18:05:06.644Z,99029.23
2023-01-09T18:08:01.572Z,99032.22
2023-01-09T18:10:35.716Z,99035.20
2023-01-09T18:13:15.403Z,99036.29
2023-01-09T18:15:52.937Z,99030.98
2023-01-09T18:18:38.565Z,99033.00
2023-01-09T18:21:16.378Z,99030.59
2023-01-09T18:23:57.069Z,99033.52
2023-01-09T18:26:51.370Z,99037.58
2023-01-09T18:29:26.104Z,99042.84
2023-01-09T18:32:13.203Z,99049.30
2023-01-09T18:34:58.164Z,99050.65
2023-01-09T18:37:34.382Z,99053.36
2023-01-09T18:40:30.332Z,99055.69
2023-01-09T18:43:08.298Z,99058.55
2023-01-09T18:45:45.731Z,99059.27
2023-01-09T18:48:20.875Z,99054.04
2023-01-09T18:51:07.526Z,99051.93
2023-01-09T18:53:43.508Z,99052.52
2023-01-09T18:56:27.214Z,99064.85
2023-01-09T18:59:06.827Z,99073.58
2023-01-09T19:01:42.506Z,99073.13
2023-01-09T19:04:21.614Z,99074.16
2023-01-09T19:07:00.507Z,99076.95
2023-01-09T19:09:36.303Z,99075.86
2023-01-09T19:12:14.401Z,99080.32
2023-01-09T19:15:13.274Z,99085.00
2023-01-09T19:17:52.918Z,99084.05
2023-01-09T19:20:49.294Z,99088.73
2023-01-09T19:23:35.121Z,99093.32
2023-01-09T19:26:27.186Z,99095.23
2023-01-09T19:29:21.313Z,99097.02
2023-01-09T19:31:57.342Z,99100.42
2023-01-09T19:34:35.396Z,99109.65
2023-01-09T19:37:11.355Z,99113.08
2023-01-09T19:39:48.262Z,99107.58
2023-01-09T19:42:23.702Z,99104.23
2023-01-09T19:45:22.836Z,99111.84
2023-01-09T19:48:00.294Z,99117.77
2023-01-09T19:51:05.684Z,99123.36
2023-01-09T19:56:44.334Z,99127.34
2023-01-09T19:59:30.203Z,99123.42
2023-01-09T20:02:15.858Z,99122.36
2023-01-09T20:04:51.233Z,99134.93
2023-01-09T20:07:46.077Z,99135.20
2023-01-09T20:10:32.906Z,99146.33
2023-01-09T20:13:19.720Z,99152.61
2023-01-09T20:15:56.266Z,99148.10
2023-01-09T20:18:37.115Z,99147.33
2023-01-09T20:21:14.542Z,99149.36
2023-01-09T20:23:49.429Z,99153.31
2023-01-09T20:26:31.153Z,99162.96
2023-01-09T20:29:13.198Z,99162.08
2023-01-09T20:32:11.008Z,99166.90
2023-01-09T20:34:47.093Z,99161.64
2023-01-09T20:37:32.083Z,99161.16
2023-01-09T20:40:07.998Z,99167.02
2023-01-09T20:42:53.350Z,99180.20
2023-01-09T20:45:48.185Z,99187.11
2023-01-09T20:48:23.946Z,99190.56
2023-01-09T20:51:09.376Z,99186.19
2023-01-09T20:53:47.785Z,99181.14
2023-01-09T20:56:33.701Z,99190.92
2023-01-09T20:59:28.001Z,99203.11
2023-01-09T21:02:07.373Z,99211.67
2023-01-09T21:05:01.816Z,99210.03
2023-01-09T21:07:56.477Z,99215.23
2023-01-09T21:10:50.728Z,99217.42
2023-01-09T21:13:34.928Z,99217.63
2023-01-09T21:16:11.550Z,99221.85
2023-01-09T21:18:45.726Z,99226.61
2023-01-09T21:21:21.139Z,99236.35
2023-01-09T21:23:59.301Z,99243.45
2023-01-09T21:26:33.099Z,99249.67
2023-01-09T21:29:08.612Z,99257.98
2023-01-09T21:31:45.472Z,99261.38
2023-01-09T21:34:29.998Z,99263.77
2023-01-09T21:37:04.140Z,99266.28
2023-01-09T21:39:58.055Z,99267.65
2023-01-09T21:43:09.553Z,99267.88
2023-01-09T21:46:21.238Z,99279.90
2023-01-09T21:49:08.325Z,99288.20
2023-01-09T21:51:56.451Z,99295.70
2023-01-09T21:54:50.707Z,99294.39
2023-01-09T21:57:37.324Z,99297.60
2023-01-09T22:00:14.146Z,99305.08
2023-01-09T22:02:59.302Z,99313.31
2023-01-09T22:05:53.381Z,99318.98
2023-01-09T22:08:38.395Z,99323.61
2023-01-09T22:11:32.849Z,99324.19
2023-01-09T22:14:20.231Z,99325.02
2023-01-09T22:17:07.712Z,99326.27
2023-01-09T22:20:01.977Z,99330.76
2023-01-09T22:22:42.681Z,99334.40
2023-01-09T22:25:22.831Z,99335.98
2023-01-09T22:27:56.745Z,99335.00
2023-01-09T22:30:51.260Z,99334.05
2023-01-09T22:33:50.573Z,99329.79
2023-01-09T22:36:45.846Z,99334.88
2023-01-09T22:39:21.648Z,99336.47
2023-01-09T22:42:06.993Z,99338.97
2023-01-09T22:44:44.143Z,99340.96
2023-01-09T22:47:18.828Z,99340.04
2023-01-09T22:49:54.932Z,99341.04
2023-01-09T22:52:49.330Z,99349.12
2023-01-09T22:55:46.959Z,99346.98
2023-01-09T22:58:34.511Z,99343.77
2023-01-09T23:01:19.273Z,99342.63
2023-01-09T23:04:05.341Z,99335.98
2023-01-09T23:06:59.685Z,99341.42
2023-01-09T23:09:38.492Z,99349.17
2023-01-09T23:12:13.068Z,99350.88
2023-01-09T23:14:57.669Z,99353.67
2023-01-09T23:17:31.616Z,99352.92
2023-01-09T23:20:26.149Z,99357.52
2023-01-09T23:23:11.184Z,99359.79
2023-01-09T23:26:07.082Z,99366.14
2023-01-09T23:28:51.189Z,99370.83
2023-01-09T23:31:38.054Z,99368.70
2023-01-09T23:34:26.059Z,99367.50
2023-01-09T23:37:11.555Z,99372.75
2023-01-09T23:39:45.728Z,99374.59
2023-01-09T23:42:46.303Z,99379.54
2023-01-09T23:45:20.733Z,99381.12
2023-01-09T23:47:59.285Z,99387.16
2023-01-09T23:50:55.754Z,99388.16
2023-01-09T23:53:49.757Z,99389.50
2023-01-09T23:56:34.969Z,99395.04
2023-01-09T23:59:11.304Z,99400.30
